Time;durP1;ratioP1;P1;durP2;ratioP2;P2;SDS_P1;SDS_P2;PMS_P1;PMS_P2;Temp;Humidity;BMP_temperature;BMP_pressure;BME280_temperature;BME280_humidity;BME280_pressure;Samples;Min_cycle;Max_cycle;Signal;HPM_P1;HPM_P2
2024/01/09 00:00:14;;;;;;;0.00;0.00;;;;;;;-2.39;71.79;103550.22;5093628;27;97511;-26
2024/01/09 00:02:40;;;;;;;1.30;0.55;;;;;;;-2.44;71.84;103546.50;5093172;27;100523;-26
2024/01/09 00:05:05;;;;;;;0.68;0.65;;;;;;;-2.40;71.71;103545.78;5093544;27;96550;-26
2024/01/09 00:07:30;;;;;;;0.15;0.10;;;;;;;-2.42;71.76;103541.25;5093453;27;96759;-27
2024/01/09 00:09:56;;;;;;;0.70;0.30;;;;;;;-2.47;71.57;103541.09;5093366;27;101262;-26
2024/01/09 00:12:21;;;;;;;0.20;0.20;;;;;;;-2.40;71.89;103555.50;5093543;27;102639;-26
2024/01/09 00:14:48;;;;;;;0.30;0.25;;;;;;;-2.37;71.65;103544.97;5093703;27;98413;-26
2024/01/09 00:17:13;;;;;;;0.17;0.17;;;;;;;-2.46;71.68;103542.88;5093299;27;96802;-26
2024/01/09 00:19:38;;;;;;;0.63;0.55;;;;;;;-2.50;71.72;103548.97;5092802;27;97974;-26
2024/01/09 00:22:04;;;;;;;0.10;0.10;;;;;;;-2.50;71.80;103535.69;5093020;27;101859;-27
2024/01/09 00:24:29;;;;;;;0.55;0.40;;;;;;;-2.45;71.63;103536.75;5093382;27;96582;-27
2024/01/09 00:26:55;;;;;;;1.20;1.02;;;;;;;-2.48;71.46;103541.03;5093262;27;96758;-26
2024/01/09 00:29:20;;;;;;;0.08;0.08;;;;;;;-2.53;71.33;103524.94;5092860;27;99221;-27
2024/01/09 00:31:45;;;;;;;0.35;0.35;;;;;;;-2.45;71.12;103517.28;5093080;27;97937;-26
2024/01/09 00:34:11;;;;;;;0.10;0.10;;;;;;;-2.48;70.98;103527.75;5092948;27;96568;-26
2024/01/09 00:36:44;;;;;;;0.55;0.45;;;;;;;-2.48;71.05;103534.00;5093522;27;101030;-26
2024/01/09 00:39:10;;;;;;;0.47;0.32;;;;;;;-2.57;71.53;103525.69;5074417;27;100738;-27
2024/01/09 00:41:36;;;;;;;0.30;0.30;;;;;;;-2.52;71.27;103529.41;5074166;27;101313;-26
2024/01/09 00:44:01;;;;;;;0.20;0.20;;;;;;;-2.52;71.44;103528.53;5092611;27;96468;-27
2024/01/09 00:46:27;;;;;;;0.52;0.40;;;;;;;-2.50;71.33;103534.75;5092903;27;96803;-27
2024/01/09 00:48:53;;;;;;;2.20;0.73;;;;;;;-2.53;70.83;103518.75;5092848;27;98403;-26
2024/01/09 00:51:18;;;;;;;0.00;0.00;;;;;;;-2.50;70.66;103541.00;5092608;27;97761;-27
2024/01/09 00:53:43;;;;;;;0.43;0.30;;;;;;;-2.53;71.16;103535.56;5093023;27;96508;-27
2024/01/09 00:56:09;;;;;;;0.10;0.10;;;;;;;-2.53;71.25;103529.34;5092796;27;96790;-27
2024/01/09 00:58:34;;;;;;;0.25;0.20;;;;;;;-2.57;71.25;103525.69;5092848;27;97932;-27
2024/01/09 01:00:59;;;;;;;0.20;0.20;;;;;;;-2.62;71.46;103536.16;5092892;27;101541;-26
2024/01/09 01:03:25;;;;;;;0.30;0.10;;;;;;;-2.53;71.35;103527.59;5092372;27;97268;-26
2024/01/09 01:05:51;;;;;;;1.05;0.85;;;;;;;-2.60;71.36;103523.84;5092994;27;96853;-27
2024/01/09 01:08:16;;;;;;;0.00;0.00;;;;;;;-2.56;71.41;103530.16;5077063;27;101028;-26
2024/01/09 01:10:41;;;;;;;0.30;0.30;;;;;;;-2.62;71.36;103546.75;5096084;27;97890;-27
2024/01/09 01:13:07;;;;;;;1.77;0.95;;;;;;;-2.65;71.81;103538.66;5096329;27;96585;-26
2024/01/09 01:15:32;;;;;;;0.10;0.10;;;;;;;-2.67;71.39;103534.16;5095936;27;96934;-26
2024/01/09 01:17:58;;;;;;;0.00;0.00;;;;;;;-2.57;71.41;103547.81;5077506;27;101107;-26
2024/01/09 01:20:23;;;;;;;1.85;0.93;;;;;;;-2.53;71.63;103545.28;5096075;27;98019;-26
2024/01/09 01:22:48;;;;;;;0.20;0.20;;;;;;;-2.62;71.60;103540.56;5095907;27;101770;-26
2024/01/09 01:25:14;;;;;;;1.65;0.52;;;;;;;-2.57;71.28;103547.81;5096339;27;96821;-27
2024/01/09 01:27:39;;;;;;;0.60;0.45;;;;;;;-2.58;72.12;103539.78;5095747;27;100912;-26
2024/01/09 01:30:05;;;;;;;0.10;0.10;;;;;;;-2.63;71.26;103552.00;5095688;27;97488;-27
2024/01/09 01:32:31;;;;;;;0.00;0.00;;;;;;;-2.67;71.56;103544.75;5095296;27;96633;-26
2024/01/09 01:34:57;;;;;;;0.10;0.10;;;;;;;-2.70;71.79;103540.25;5095968;27;96803;-27
2024/01/09 01:37:22;;;;;;;0.30;0.30;;;;;;;-2.78;71.76;103545.28;5095780;27;97515;-27
2024/01/09 01:39:47;;;;;;;0.20;0.20;;;;;;;-2.72;72.03;103554.31;5095702;27;97772;-27
2024/01/09 01:42:12;;;;;;;0.65;0.38;;;;;;;-2.78;71.79;103545.28;5095448;27;99673;-27
2024/01/09 01:44:38;;;;;;;0.40;0.40;;;;;;;-2.77;71.79;103548.81;5095663;27;96463;-27
2024/01/09 01:47:05;;;;;;;0.10;0.10;;;;;;;-2.70;71.80;103556.16;5095486;27;97814;-27
2024/01/09 01:49:30;;;;;;;0.30;0.28;;;;;;;-2.73;71.62;103536.59;5077216;27;101030;-26
2024/01/09 01:51:56;;;;;;;0.28;0.17;;;;;;;-2.79;71.79;103531.94;5095711;27;96625;-26
2024/01/09 01:54:22;;;;;;;0.20;0.20;;;;;;;-2.70;71.89;103552.63;5095096;27;96879;-26
2024/01/09 01:56:49;;;;;;;0.00;0.00;;;;;;;-2.68;71.77;103550.94;5076154;27;100022;-26
2024/01/09 01:59:18;;;;;;;0.00;0.00;;;;;;;-2.77;71.50;103560.34;5076694;27;100989;-26
2024/01/09 02:01:46;;;;;;;0.22;0.22;;;;;;;-2.76;71.35;103553.31;5076229;27;96748;-26
2024/01/09 02:04:12;;;;;;;0.00;0.00;;;;;;;-2.75;71.32;103560.41;5095254;27;96902;-26
2024/01/09 02:06:38;;;;;;;0.40;0.40;;;;;;;-2.75;71.56;103549.78;5076287;27;101620;-27
2024/01/09 02:09:04;;;;;;;0.32;0.32;;;;;;;-2.80;71.36;103543.41;5076569;27;101174;-27
2024/01/09 02:11:29;;;;;;;0.00;0.00;;;;;;;-2.77;71.49;103552.38;5095198;27;96613;-26
2024/01/09 02:13:54;;;;;;;0.80;0.60;;;;;;;-2.77;71.41;103543.53;5095543;27;96783;-27
2024/01/09 02:16:20;;;;;;;0.10;0.10;;;;;;;-2.80;71.42;103535.47;5095203;27;97562;-27
2024/01/09 02:18:45;;;;;;;0.10;0.10;;;;;;;-2.81;71.55;103539.88;5094362;27;99074;-26
2024/01/09 02:21:11;;;;;;;0.47;0.47;;;;;;;-2.84;71.76;103533.53;5094280;27;96465;-27
2024/01/09 02:23:36;;;;;;;0.77;0.73;;;;;;;-2.80;71.41;103541.66;5095083;27;96746;-26
2024/01/09 02:26:02;;;;;;;0.45;0.45;;;;;;;-2.82;71.71;103535.41;5095074;27;99120;-26
2024/01/09 02:28:31;;;;;;;0.00;0.00;;;;;;;-2.88;71.07;103528.97;5094671;27;99295;-26
2024/01/09 02:30:56;;;;;;;0.20;0.20;;;;;;;-2.82;71.51;103537.16;5076280;27;96612;-26
2024/01/09 02:33:22;;;;;;;0.00;0.00;;;;;;;-2.86;71.68;103529.91;5076407;27;96844;-27
2024/01/09 02:35:47;;;;;;;0.15;0.05;;;;;;;-2.90;71.24;103526.25;5094813;27;97412;-27
2024/01/09 02:38:12;;;;;;;1.08;0.47;;;;;;;-2.84;71.77;103531.78;5095140;27;96512;-28
2024/01/09 02:40:38;;;;;;;0.10;0.10;;;;;;;-2.90;70.71;103528.03;5094641;27;96468;-27
2024/01/09 02:43:04;;;;;;;0.20;0.20;;;;;;;-2.93;71.36;103527.88;5094816;27;96734;-26
2024/01/09 02:45:29;;;;;;;0.10;0.10;;;;;;;-2.94;71.23;103524.34;5093928;27;97588;-26
2024/01/09 02:47:55;;;;;;;0.00;0.00;;;;;;;-3.05;71.40;103518.66;5094413;27;99569;-26
2024/01/09 02:50:20;;;;;;;0.05;0.05;;;;;;;-3.01;71.42;103520.53;5094845;27;99350;-27
2024/01/09 02:52:46;;;;;;;0.28;0.28;;;;;;;-2.97;71.63;103520.69;5094069;27;96814;-26
2024/01/09 02:55:12;;;;;;;1.45;0.65;;;;;;;-2.96;71.42;103520.72;5075832;27;101263;-28
2024/01/09 02:57:40;;;;;;;0.03;0.03;;;;;;;-3.00;71.59;103518.81;5094189;27;99153;-26
2024/01/09 03:00:07;;;;;;;0.17;0.10;;;;;;;-3.06;71.50;103492.97;5094367;27;96646;-26
2024/01/09 03:02:33;;;;;;;0.20;0.20;;;;;;;-2.95;70.76;103511.03;5094053;27;96719;-27
2024/01/09 03:04:58;;;;;;;0.05;0.05;;;;;;;-2.97;71.77;103520.69;5094192;27;97875;-27
2024/01/09 03:07:23;;;;;;;0.55;0.40;;;;;;;-3.01;71.34;103509.94;5093867;27;104463;-27
2024/01/09 03:09:49;;;;;;;0.20;0.13;;;;;;;-3.00;71.31;103516.16;5093942;27;96558;-27
2024/01/09 03:12:14;;;;;;;0.38;0.25;;;;;;;-3.00;71.55;103500.25;5094342;27;96715;-26
2024/01/09 03:14:41;;;;;;;0.00;0.00;;;;;;;-2.96;71.57;103518.06;5094166;27;101524;-27
2024/01/09 03:17:06;;;;;;;0.00;0.00;;;;;;;-2.94;72.04;103521.69;5075568;27;100742;-26
2024/01/09 03:19:32;;;;;;;0.03;0.03;;;;;;;-3.00;71.58;103514.41;5094107;27;96480;-27
2024/01/09 03:21:57;;;;;;;0.63;0.63;;;;;;;-2.99;71.71;103517.97;5093742;27;96718;-26
2024/01/09 03:24:22;;;;;;;1.45;0.90;;;;;;;-3.13;71.93;103509.47;5093971;27;97972;-26
2024/01/09 03:26:48;;;;;;;0.00;0.00;;;;;;;-3.04;72.24;103512.47;5094277;27;97753;-27
2024/01/09 03:29:16;;;;;;;0.43;0.43;;;;;;;-2.95;72.17;103509.28;5093084;27;96557;-27
2024/01/09 03:31:42;;;;;;;0.13;0.13;;;;;;;-3.02;72.06;103502.84;5075453;27;96721;-26
2024/01/09 03:34:07;;;;;;;0.00;0.00;;;;;;;-3.05;72.05;103496.50;5093068;27;98706;-27
2024/01/09 03:36:32;;;;;;;0.00;0.00;;;;;;;-3.03;71.94;103494.81;5093660;27;97860;-27
2024/01/09 03:38:57;;;;;;;0.45;0.45;;;;;;;-2.96;72.61;103501.25;5094091;27;96449;-26
2024/01/09 03:41:23;;;;;;;0.40;0.35;;;;;;;-2.97;72.46;103494.16;5093762;27;96871;-26
2024/01/09 03:43:49;;;;;;;0.20;0.20;;;;;;;-2.91;72.66;103507.63;5075004;27;100961;-26
2024/01/09 03:46:14;;;;;;;0.00;0.00;;;;;;;-2.97;72.63;103499.47;5093179;27;98783;-27
2024/01/09 03:48:39;;;;;;;0.32;0.32;;;;;;;-3.01;72.30;103493.13;5093742;27;96465;-27
2024/01/09 03:51:05;;;;;;;1.38;0.68;;;;;;;-3.08;72.42;103513.19;5093385;27;96811;-26
2024/01/09 03:53:30;;;;;;;0.00;0.00;;;;;;;-3.20;72.53;103487.13;5093594;27;97426;-28
2024/01/09 03:55:55;;;;;;;0.00;0.00;;;;;;;-3.05;72.74;103509.75;5093477;27;97889;-28
2024/01/09 03:58:21;;;;;;;1.65;0.40;;;;;;;-3.11;72.25;103507.78;5074287;27;96647;-26
2024/01/09 04:00:46;;;;;;;0.00;0.00;;;;;;;-3.11;72.77;103501.59;5093905;27;96876;-27
2024/01/09 04:03:11;;;;;;;0.10;0.10;;;;;;;-3.10;73.11;103495.44;5093173;27;100784;-26
2024/01/09 04:05:37;;;;;;;0.10;0.10;;;;;;;-3.04;72.56;103504.53;5093538;27;97465;-26
2024/01/09 04:08:02;;;;;;;0.00;0.00;;;;;;;-3.15;72.53;103494.38;5093522;27;96645;-26
2024/01/09 04:10:27;;;;;;;0.93;0.65;;;;;;;-3.11;72.70;103497.19;5093498;27;96760;-26
2024/01/09 04:12:56;;;;;;;0.00;0.00;;;;;;;-3.08;73.07;103501.72;5093139;27;98678;-26
2024/01/09 04:15:21;;;;;;;0.00;0.00;;;;;;;-3.08;72.45;103501.72;5074953;27;99207;-27
2024/01/09 04:17:46;;;;;;;0.17;0.05;;;;;;;-3.11;72.21;103491.88;5093163;27;96547;-28
2024/01/09 04:20:12;;;;;;;0.22;0.22;;;;;;;-3.11;72.67;103491.00;5093495;27;96791;-26
2024/01/09 04:22:38;;;;;;;0.95;0.47;;;;;;;-3.14;72.62;103493.53;5074077;27;100662;-26
2024/01/09 04:25:04;;;;;;;0.35;0.35;;;;;;;-3.08;72.58;103499.94;5093018;27;99173;-27
2024/01/09 04:27:29;;;;;;;0.30;0.25;;;;;;;-3.14;72.56;103493.53;5093254;27;96470;-27
2024/01/09 04:29:55;;;;;;;1.55;1.05;;;;;;;-3.15;72.29;103504.97;5093279;27;96627;-26
2024/01/09 04:32:20;;;;;;;0.00;0.00;;;;;;;-3.16;72.78;103503.19;5092817;27;98871;-26
2024/01/09 04:34:46;;;;;;;0.88;0.20;;;;;;;-3.15;72.50;103497.91;5093051;27;97813;-26
2024/01/09 04:37:11;;;;;;;0.13;0.13;;;;;;;-3.18;72.63;103491.59;5092863;27;96721;-27
2024/01/09 04:39:36;;;;;;;0.15;0.08;;;;;;;-3.20;72.93;103481.84;5093628;27;96778;-28
2024/01/09 04:42:02;;;;;;;0.00;0.00;;;;;;;-3.12;72.80;103489.16;5096393;27;97399;-26
2024/01/09 04:44:27;;;;;;;0.03;0.03;;;;;;;-3.15;72.71;103483.75;5096619;27;97751;-26
2024/01/09 04:46:52;;;;;;;0.05;0.05;;;;;;;-3.17;72.67;103496.06;5095680;27;101732;-26
2024/01/09 04:49:18;;;;;;;0.17;0.17;;;;;;;-3.11;72.76;103497.19;5096250;27;103328;-27
2024/01/09 04:51:44;;;;;;;0.08;0.08;;;;;;;-3.21;73.01;103495.94;5096278;27;97535;-26
2024/01/09 04:54:09;;;;;;;0.73;0.52;;;;;;;-3.15;72.77;103500.56;5096682;27;97320;-26
2024/01/09 04:56:34;;;;;;;0.13;0.13;;;;;;;-3.14;73.11;103513.00;5096725;27;96734;-26
2024/01/09 04:59:00;;;;;;;0.85;0.22;;;;;;;-3.16;72.77;103506.72;5096491;27;96802;-27
2024/01/09 05:01:26;;;;;;;0.82;0.73;;;;;;;-3.22;72.68;103487.91;5095286;27;99452;-26
2024/01/09 05:03:53;;;;;;;0.00;0.00;;;;;;;-3.24;72.93;103498.50;5096311;27;98650;-26
2024/01/09 05:06:18;;;;;;;0.17;0.17;;;;;;;-3.31;73.03;103493.78;5077842;27;96724;-26
2024/01/09 05:08:44;;;;;;;0.32;0.32;;;;;;;-3.37;73.48;103492.66;5096092;27;96837;-27
2024/01/09 05:11:10;;;;;;;0.00;0.00;;;;;;;-3.32;73.98;103497.28;5077174;27;100961;-26
2024/01/09 05:13:35;;;;;;;0.00;0.00;;;;;;;-3.39;73.69;103478.44;5095996;27;99193;-26
2024/01/09 05:16:01;;;;;;;0.70;0.50;;;;;;;-3.35;73.84;103483.91;5096347;27;96683;-27
2024/01/09 05:18:26;;;;;;;0.50;0.32;;;;;;;-3.37;73.73;103495.31;5096130;27;96760;-26
2024/01/09 05:20:51;;;;;;;0.00;0.00;;;;;;;-3.34;74.24;103492.75;5096164;27;98165;-26
2024/01/09 05:23:17;;;;;;;0.00;0.00;;;;;;;-3.38;73.72;103489.09;5095937;27;97442;-26
2024/01/09 05:25:42;;;;;;;0.13;0.13;;;;;;;-3.34;73.31;103496.31;5096117;27;96517;-27
2024/01/09 05:28:08;;;;;;;0.35;0.20;;;;;;;-3.43;73.63;103488.91;5096266;27;96847;-26
2024/01/09 05:30:33;;;;;;;0.03;0.03;;;;;;;-3.37;73.97;103503.25;5095974;27;97992;-26
2024/01/09 05:32:59;;;;;;;0.00;0.00;;;;;;;-3.38;73.43;103490.81;5095871;27;97842;-26
2024/01/09 05:35:24;;;;;;;0.03;0.03;;;;;;;-3.46;73.62;103491.44;5095365;27;97224;-26
2024/01/09 05:37:49;;;;;;;0.00;0.00;;;;;;;-3.49;74.25;103493.97;5095990;27;96837;-27
2024/01/09 05:40:17;;;;;;;0.35;0.28;;;;;;;-3.52;74.37;103491.22;5095449;27;99904;-27
2024/01/09 05:42:43;;;;;;;0.08;0.08;;;;;;;-3.43;73.99;103496.88;5076818;27;101188;-27
2024/01/09 05:45:09;;;;;;;0.22;0.22;;;;;;;-3.48;74.23;103490.50;5076712;27;97684;-27
2024/01/09 05:47:34;;;;;;;0.25;0.25;;;;;;;-3.50;73.83;103496.59;5076719;27;97272;-26
2024/01/09 05:50:00;;;;;;;0.22;0.22;;;;;;;-3.49;74.63;103496.63;5095577;27;97997;-26
2024/01/09 05:52:25;;;;;;;0.00;0.00;;;;;;;-3.37;74.59;103505.91;5094849;27;97437;-27
2024/01/09 05:54:50;;;;;;;0.32;0.32;;;;;;;-3.35;74.40;103499.81;5095647;27;96492;-26
2024/01/09 05:57:16;;;;;;;0.30;0.30;;;;;;;-3.41;73.66;103502.22;5095611;27;96832;-26
2024/01/09 05:59:41;;;;;;;0.35;0.17;;;;;;;-3.36;74.10;103503.31;5094979;27;97887;-28
2024/01/09 06:02:07;;;;;;;0.28;0.28;;;;;;;-3.31;74.16;103508.75;5094770;27;97967;-26
2024/01/09 06:04:32;;;;;;;0.00;0.00;;;;;;;-3.31;73.82;103515.00;5095063;27;96546;-27
2024/01/09 06:06:57;;;;;;;0.88;0.73;;;;;;;-3.40;73.69;103511.09;5095590;27;96775;-26
2024/01/09 06:09:23;;;;;;;1.85;0.57;;;;;;;-3.54;74.13;103495.53;5094868;27;106286;-27
2024/01/09 06:11:48;;;;;;;0.75;0.70;;;;;;;-3.42;74.32;103498.66;5095346;27;97529;-27
2024/01/09 06:14:13;;;;;;;0.57;0.52;;;;;;;-3.44;74.43;103507.41;5095305;27;96614;-27
2024/01/09 06:16:39;;;;;;;0.68;0.43;;;;;;;-3.51;74.12;103506.25;5095607;27;96771;-27
2024/01/09 06:19:04;;;;;;;0.75;0.22;;;;;;;-3.50;74.60;103516.03;5095224;27;97899;-26
2024/01/09 06:21:29;;;;;;;0.52;0.50;;;;;;;-3.36;74.27;103498.03;5095165;27;97859;-27
2024/01/09 06:23:55;;;;;;;0.00;0.00;;;;;;;-3.36;73.56;103513.00;5094585;27;96593;-26
2024/01/09 06:26:20;;;;;;;0.38;0.38;;;;;;;-3.34;73.19;103512.19;5094972;27;96844;-26
2024/01/09 06:28:45;;;;;;;0.00;0.00;;;;;;;-3.26;73.82;103513.41;5095003;27;96888;-26
2024/01/09 06:31:11;;;;;;;1.48;0.95;;;;;;;-3.28;73.23;103519.50;5076241;27;97962;-26
2024/01/09 06:33:36;;;;;;;0.60;0.60;;;;;;;-3.35;73.22;103525.41;5094856;27;96562;-26
2024/01/09 06:36:02;;;;;;;2.83;2.28;;;;;;;-3.40;73.38;103511.09;5094946;27;96756;-27
2024/01/09 06:38:27;;;;;;;2.10;1.52;;;;;;;-3.43;73.61;103527.78;5094774;27;97386;-27
2024/01/09 06:40:52;;;;;;;2.03;1.60;;;;;;;-3.49;73.33;103520.47;5095213;27;97579;-26
2024/01/09 06:43:18;;;;;;;2.35;1.95;;;;;;;-3.50;73.88;103517.78;5094562;27;96474;-26
2024/01/09 06:45:43;;;;;;;2.42;1.90;;;;;;;-3.41;73.53;103528.69;5094500;27;96853;-27
2024/01/09 06:48:09;;;;;;;1.38;1.23;;;;;;;-3.47;73.44;103526.72;5075098;27;101027;-26
2024/01/09 06:50:35;;;;;;;1.70;1.55;;;;;;;-3.51;73.50;103526.53;5094675;27;97969;-28
2024/01/09 06:53:00;;;;;;;1.20;1.08;;;;;;;-3.55;73.18;103533.47;5092050;27;96913;-31
2024/01/09 06:55:26;;;;;;;0.20;0.20;;;;;;;-3.49;73.54;103528.41;5075825;27;96804;-26
2024/01/09 06:57:52;;;;;;;0.40;0.40;;;;;;;-3.52;73.74;103528.28;5094340;27;97935;-27
2024/01/09 07:00:18;;;;;;;0.98;0.85;;;;;;;-3.50;73.48;103537.22;5094357;27;97351;-26
2024/01/09 07:02:44;;;;;;;0.80;0.43;;;;;;;-3.53;73.95;103534.41;5075395;27;96556;-27
2024/01/09 07:05:10;;;;;;;0.10;0.10;;;;;;;-3.57;73.22;103537.81;5094419;27;97614;-28
2024/01/09 07:07:35;;;;;;;0.15;0.15;;;;;;;-3.58;73.16;103538.63;5092018;27;98522;-33
2024/01/09 07:10:01;;;;;;;4.07;0.47;;;;;;;-3.53;73.11;103534.41;5091782;27;99147;-29
2024/01/09 07:12:27;;;;;;;0.90;0.75;;;;;;;-3.57;72.66;103526.31;5091800;27;97030;-28
2024/01/09 07:14:53;;;;;;;0.20;0.20;;;;;;;-3.53;73.08;103533.53;5091718;27;96846;-28
2024/01/09 07:17:18;;;;;;;0.30;0.30;;;;;;;-3.56;72.82;103542.25;5072935;27;101352;-27
2024/01/09 07:19:44;;;;;;;0.10;0.10;;;;;;;-3.60;73.14;103529.72;5091615;27;98700;-28
2024/01/09 07:22:09;;;;;;;0.08;0.08;;;;;;;-3.64;72.83;103539.28;5093778;27;96591;-26
2024/01/09 07:24:34;;;;;;;1.02;0.75;;;;;;;-3.54;73.01;103543.22;5093851;27;96791;-26
2024/01/09 07:27:00;;;;;;;0.85;0.55;;;;;;;-3.57;72.36;103540.47;5093952;27;97864;-26
2024/01/09 07:29:25;;;;;;;0.75;0.38;;;;;;;-3.55;72.44;103551.09;5094106;27;99202;-26
2024/01/09 07:31:51;;;;;;;0.00;0.00;;;;;;;-3.56;72.67;103555.50;5093908;27;96576;-26
2024/01/09 07:34:16;;;;;;;1.77;1.67;;;;;;;-3.68;72.55;103550.59;5075356;27;96845;-26
2024/01/09 07:36:42;;;;;;;0.47;0.47;;;;;;;-3.85;73.22;103559.59;5093437;27;97500;-26
2024/01/09 07:39:08;;;;;;;0.40;0.40;;;;;;;-3.87;73.54;103555.97;5093782;27;97951;-26
2024/01/09 07:41:34;;;;;;;0.30;0.20;;;;;;;-3.81;73.72;103571.22;5093641;27;96709;-27
2024/01/09 07:44:00;;;;;;;0.25;0.25;;;;;;;-3.91;72.98;103572.56;5093730;27;96590;-27
2024/01/09 07:46:26;;;;;;;0.43;0.43;;;;;;;-3.94;73.39;103575.09;5074475;27;100954;-27
2024/01/09 07:48:51;;;;;;;0.10;0.10;;;;;;;-3.95;73.25;103584.78;5093840;27;97296;-27
2024/01/09 07:51:16;;;;;;;0.45;0.35;;;;;;;-3.98;73.63;103573.16;5093146;27;96678;-28
2024/01/09 07:53:42;;;;;;;0.57;0.57;;;;;;;-3.96;73.09;103585.59;5094281;27;96698;-28
2024/01/09 07:56:17;;;;;;;0.20;0.15;;;;;;;-3.82;73.09;103587.94;5093710;27;97610;-28
2024/01/09 07:58:43;;;;;;;0.52;0.52;;;;;;;-3.82;73.15;103595.88;5074932;27;98902;-28
2024/01/09 08:01:09;;;;;;;0.00;0.00;;;;;;;-3.93;73.40;103592.81;5073996;27;96793;-28
2024/01/09 08:03:34;;;;;;;1.92;1.52;;;;;;;-3.98;72.93;103587.31;5093323;27;96635;-27
2024/01/09 08:05:59;;;;;;;2.08;1.35;;;;;;;-3.99;72.28;103604.00;5093391;27;96622;-27
2024/01/09 08:08:25;;;;;;;0.00;0.00;;;;;;;-4.10;72.54;103586.75;5093504;27;97818;-28
2024/01/09 08:10:50;;;;;;;0.28;0.28;;;;;;;-3.91;72.63;103597.31;5093666;27;96398;-27
2024/01/09 08:13:16;;;;;;;1.15;0.82;;;;;;;-3.82;71.32;103596.78;5093585;27;96860;-27
2024/01/09 08:15:41;;;;;;;0.45;0.45;;;;;;;-3.74;71.31;103613.00;5077974;27;100950;-27
2024/01/09 08:18:06;;;;;;;0.80;0.70;;;;;;;-3.77;71.37;103591.69;5100634;27;97260;-28
2024/01/09 08:20:32;;;;;;;0.22;0.22;;;;;;;-3.72;70.70;103596.34;5099972;27;96587;-28
2024/01/09 08:22:58;;;;;;;0.43;0.43;;;;;;;-3.88;70.94;103597.44;5100207;27;96722;-28
2024/01/09 08:25:23;;;;;;;0.43;0.38;;;;;;;-4.02;71.31;103603.91;5099282;27;99593;-27
2024/01/09 08:27:49;;;;;;;0.20;0.20;;;;;;;-4.02;71.95;103611.84;5099767;27;98830;-28
2024/01/09 08:30:15;;;;;;;0.68;0.47;;;;;;;-3.95;71.84;103613.91;5100224;27;96435;-27
2024/01/09 08:32:40;;;;;;;0.95;0.45;;;;;;;-3.98;71.97;103610.22;5099949;27;96780;-29
2024/01/09 08:35:06;;;;;;;0.17;0.17;;;;;;;-3.95;71.36;103613.00;5100350;27;97812;-27
2024/01/09 08:37:31;;;;;;;1.65;1.55;;;;;;;-3.96;71.24;103612.06;5081222;27;100588;-28
2024/01/09 08:39:56;;;;;;;3.08;0.98;;;;;;;-3.98;71.57;103608.50;5100126;27;96575;-29
2024/01/09 08:42:22;;;;;;;1.83;1.50;;;;;;;-3.85;71.40;103615.19;5100508;27;96885;-28
2024/01/09 08:44:47;;;;;;;2.65;1.38;;;;;;;-3.96;70.84;103606.78;5099591;27;97862;-28
2024/01/09 08:47:12;;;;;;;7.22;2.83;;;;;;;-3.93;70.89;103614.88;5099504;27;98062;-28
2024/01/09 08:49:38;;;;;;;7.80;4.55;;;;;;;-3.95;71.65;103607.72;5099391;27;96580;-27
2024/01/09 08:52:04;;;;;;;1.63;1.48;;;;;;;-3.90;70.81;103620.28;5099968;27;96789;-27
2024/01/09 08:54:30;;;;;;;1.60;1.45;;;;;;;-3.96;70.45;103612.06;5081036;27;100625;-30
2024/01/09 08:56:55;;;;;;;1.38;1.27;;;;;;;-3.93;71.10;103614.88;5099831;27;97336;-29
2024/01/09 08:59:20;;;;;;;0.65;0.65;;;;;;;-3.88;70.53;103623.91;5099425;27;96654;-27
2024/01/09 09:01:46;;;;;;;0.95;0.80;;;;;;;-3.79;71.41;103610.19;5099164;27;96809;-28
2024/01/09 09:04:11;;;;;;;0.70;0.70;;;;;;;-3.72;70.96;103606.94;5099637;27;98038;-28
2024/01/09 09:06:37;;;;;;;5.50;4.80;;;;;;;-3.69;70.42;103609.72;5099834;27;99242;-28
2024/01/09 09:09:03;;;;;;;0.70;0.70;;;;;;;-3.61;69.98;103615.31;5099495;27;96504;-29
2024/01/09 09:11:31;;;;;;;1.02;0.68;;;;;;;-3.67;69.94;103623.94;5099932;27;96859;-27
2024/01/09 09:13:57;;;;;;;0.25;0.13;;;;;;;-3.74;69.17;103615.63;5098978;27;97997;-28
2024/01/09 09:16:23;;;;;;;0.20;0.20;;;;;;;-3.73;69.19;103617.47;5099580;27;97922;-28
2024/01/09 09:18:48;;;;;;;2.40;1.25;;;;;;;-3.80;68.95;103605.72;5099418;27;96544;-28
2024/01/09 09:21:16;;;;;;;2.88;1.73;;;;;;;-3.71;68.50;103618.44;5099369;27;96779;-27
2024/01/09 09:23:42;;;;;;;1.35;0.82;;;;;;;-3.73;67.91;103614.81;5097397;27;97541;-28
2024/01/09 09:26:07;;;;;;;0.30;0.20;;;;;;;-3.71;68.22;103616.69;5098873;27;97797;-27
2024/01/09 09:28:33;;;;;;;0.55;0.50;;;;;;;-3.51;67.64;103616.63;5094474;27;96748;-28
2024/01/09 09:30:58;;;;;;;0.00;0.00;;;;;;;-3.55;68.06;103612.03;5096410;27;96765;-27
2024/01/09 09:33:27;;;;;;;1.65;0.93;;;;;;;-3.56;67.01;103620.81;5096080;27;101313;-29
2024/01/09 09:35:52;;;;;;;0.10;0.10;;;;;;;-3.53;67.22;103620.94;5077186;27;101356;-27
2024/01/09 09:38:17;;;;;;;0.13;0.13;;;;;;;-3.47;67.64;103608.84;5094820;27;100346;-28
2024/01/09 09:40:42;;;;;;;1.88;1.33;;;;;;;-3.43;68.35;103613.44;5095449;27;96807;-31
2024/01/09 09:43:14;;;;;;;5.00;1.17;;;;;;;-3.34;67.03;103619.94;5093240;27;97494;-29
2024/01/09 09:45:42;;;;;;;0.17;0.17;;;;;;;-3.29;67.56;103619.31;5074369;27;100885;-28
2024/01/09 09:48:10;;;;;;;0.00;0.00;;;;;;;-3.30;66.01;103612.19;5076279;27;96705;-28
2024/01/09 09:50:36;;;;;;;0.45;0.30;;;;;;;-3.17;66.11;103610.03;5095050;27;97110;-28
2024/01/09 09:53:01;;;;;;;0.32;0.32;;;;;;;-3.11;65.97;103611.19;5094838;27;98034;-28
2024/01/09 09:55:26;;;;;;;0.35;0.35;;;;;;;-3.07;65.20;103604.28;5095092;27;97707;-28
2024/01/09 09:57:52;;;;;;;0.22;0.22;;;;;;;-3.07;63.80;103607.81;5094892;27;96625;-28
2024/01/09 10:00:18;;;;;;;0.10;0.10;;;;;;;-2.90;65.92;103616.44;5093504;27;96641;-28
2024/01/09 10:02:48;;;;;;;0.85;0.65;;;;;;;-2.84;65.65;103621.06;5072977;27;101390;-32
2024/01/09 10:05:16;;;;;;;0.00;0.00;;;;;;;-2.70;65.85;103627.78;5092738;27;99112;-28
2024/01/09 10:07:46;;;;;;;0.15;0.15;;;;;;;-2.67;64.07;103624.34;5094337;27;97076;-28
2024/01/09 10:10:13;;;;;;;1.02;0.15;;;;;;;-2.79;62.45;103601.84;5075367;27;96880;-28
2024/01/09 10:12:39;;;;;;;0.20;0.20;;;;;;;-2.66;63.23;103602.28;5094992;27;99526;-28
2024/01/09 10:15:12;;;;;;;1.30;1.20;;;;;;;-2.56;63.74;103609.75;5076308;27;99571;-28
2024/01/09 10:17:41;;;;;;;1.65;0.88;;;;;;;-2.50;63.17;103596.72;5094719;27;96685;-28
2024/01/09 10:20:11;;;;;;;0.63;0.45;;;;;;;-2.49;61.30;103605.56;5077018;27;96802;-27
2024/01/09 10:22:38;;;;;;;0.35;0.35;;;;;;;-2.42;62.49;103597.88;5076043;27;100962;-28
2024/01/09 10:25:11;;;;;;;0.60;0.47;;;;;;;-2.28;61.96;103605.47;5076093;27;100810;-28
2024/01/09 10:27:38;;;;;;;0.60;0.60;;;;;;;-2.30;61.57;103575.31;5094466;27;96631;-28
2024/01/09 10:30:05;;;;;;;2.90;1.42;;;;;;;-2.13;60.83;103593.63;5076245;27;97745;-28
2024/01/09 10:32:35;;;;;;;1.65;0.63;;;;;;;-1.88;61.22;103601.53;5076199;27;100838;-27
2024/01/09 10:35:05;;;;;;;1.50;1.40;;;;;;;-1.90;60.97;103593.53;5094599;27;97322;-28
2024/01/09 10:37:31;;;;;;;0.40;0.17;;;;;;;-1.46;61.31;103571.94;5094522;27;96730;-28
2024/01/09 10:40:00;;;;;;;0.13;0.13;;;;;;;-1.24;60.23;103574.44;5075218;27;96804;-32
2024/01/09 10:42:27;;;;;;;0.93;0.88;;;;;;;-1.24;59.51;103578.84;5074378;27;101085;-28
2024/01/09 10:44:52;;;;;;;1.30;0.95;;;;;;;-0.98;59.57;103569.91;5076194;27;100973;-27
2024/01/09 10:47:18;;;;;;;1.27;1.05;;;;;;;-0.97;58.45;103562.84;5093068;27;100316;-27
2024/01/09 10:49:45;;;;;;;0.55;0.55;;;;;;;-0.69;57.59;103559.22;5094236;27;96782;-29
2024/01/09 10:52:17;;;;;;;1.80;0.43;;;;;;;-0.62;55.10;103552.31;5075206;27;98886;-28
2024/01/09 10:54:46;;;;;;;;;;;;;;;-0.55;56.52;103556.97;5094792;27;99200;-28
2024/01/09 10:57:16;;;;;;;0.30;0.30;;;;;;;-0.54;57.17;103537.50;5075563;27;96533;-28
2024/01/09 10:59:43;;;;;;;0.28;0.28;;;;;;;-0.54;55.58;103537.50;5075863;27;96870;-28
2024/01/09 11:02:25;;;;;;;0.65;0.30;;;;;;;-0.46;55.70;103542.16;5074942;27;101041;-29
2024/01/09 11:04:50;;;;;;;1.23;1.10;;;;;;;-0.37;54.56;103538.84;5094621;27;97855;-27
2024/01/09 11:07:17;;;;;;;2.72;1.27;;;;;;;-0.29;54.68;103541.72;5094265;27;96624;-29
2024/01/09 11:09:44;;;;;;;1.20;1.10;;;;;;;-0.28;53.95;103527.56;5076122;27;96849;-29
2024/01/09 11:12:23;;;;;;;5.95;3.08;;;;;;;-0.19;55.57;103532.19;5094130;27;99521;-28
2024/01/09 11:14:59;;;;;;;1.45;1.35;;;;;;;-0.11;55.30;103531.56;5075464;27;100630;-28
2024/01/09 11:17:25;;;;;;;1.23;1.13;;;;;;;0.03;54.11;103526.59;5075228;27;97639;-28